Time;durP1;ratioP1;P1;durP2;ratioP2;P2;SDS_P1;SDS_P2;PMS_P1;PMS_P2;Temp;Humidity;BMP_temperature;BMP_pressure;BME280_temperature;BME280_humidity;BME280_pressure;Samples;Min_cycle;Max_cycle;Signal;HPM_P1;HPM_P2
2021/05/26 00:00:05;;;;;;;6.72;3.10;;;;;;;10.10;100.00;99407.53;5055085;28;20606;-75
2021/05/26 00:02:31;;;;;;;3.78;3.03;;;;;;;10.09;100.00;99401.31;5054750;28;20271;-75
2021/05/26 00:04:57;;;;;;;5.40;3.72;;;;;;;10.13;100.00;99400.16;5054266;28;20198;-75
2021/05/26 00:07:23;;;;;;;4.57;3.45;;;;;;;10.21;100.00;99402.41;5054956;28;20202;-74
2021/05/26 00:09:50;;;;;;;4.90;3.25;;;;;;;10.29;100.00;99396.56;5054092;28;20204;-75
2021/05/26 00:12:16;;;;;;;9.23;3.30;;;;;;;10.22;100.00;99388.84;5054180;28;20287;-74
2021/05/26 00:14:43;;;;;;;5.95;3.90;;;;;;;10.19;100.00;99396.22;5054760;28;20217;-75
2021/05/26 00:17:09;;;;;;;7.95;3.45;;;;;;;10.28;100.00;99394.81;5054173;28;20203;-75
2021/05/26 00:19:37;;;;;;;5.32;3.50;;;;;;;10.39;100.00;99389.69;5054438;28;20223;-74
2021/05/26 00:22:03;;;;;;;8.88;3.20;;;;;;;10.41;100.00;99377.88;5054666;28;20200;-74
2021/05/26 00:24:30;;;;;;;6.30;3.20;;;;;;;10.48;100.00;99391.81;5054242;28;20523;-75
2021/05/26 00:26:57;;;;;;;6.97;3.20;;;;;;;10.65;100.00;99388.09;5054127;28;20351;-75
2021/05/26 00:29:23;;;;;;;7.80;3.30;;;;;;;10.80;100.00;99380.88;5053995;28;20520;-76
2021/05/26 00:31:49;;;;;;;3.92;3.00;;;;;;;10.90;98.61;99387.44;5054165;28;20542;-74
2021/05/26 00:34:15;;;;;;;8.13;3.60;;;;;;;10.93;98.46;99381.00;5053932;28;20218;-75
2021/05/26 00:36:41;;;;;;;7.40;3.40;;;;;;;10.76;98.94;99364.06;5053846;28;20292;-74
2021/05/26 00:39:07;;;;;;;6.72;3.22;;;;;;;10.52;99.59;99365.59;5053779;28;20224;-74
2021/05/26 00:41:33;;;;;;;7.95;3.47;;;;;;;10.66;100.00;99365.59;5054098;28;20215;-75
2021/05/26 00:44:00;;;;;;;3.92;3.50;;;;;;;10.81;99.89;99369.16;5053722;28;20216;-73
2021/05/26 00:46:26;;;;;;;5.65;3.13;;;;;;;10.88;100.00;99370.50;5054034;28;20611;-74
2021/05/26 00:48:53;;;;;;;5.63;3.47;;;;;;;10.71;100.00;99368.00;5053826;28;20316;-74
2021/05/26 00:51:19;;;;;;;5.63;3.03;;;;;;;10.66;100.00;99372.81;5053742;28;20195;-74
2021/05/26 00:53:45;;;;;;;3.35;3.05;;;;;;;10.63;100.00;99363.09;5053843;28;20218;-74
2021/05/26 00:56:12;;;;;;;4.45;3.00;;;;;;;10.44;100.00;99357.97;5053536;28;20247;-76
2021/05/26 00:58:40;;;;;;;6.28;3.80;;;;;;;10.29;100.00;99345.44;5053167;28;20188;-75
2021/05/26 01:01:07;;;;;;;7.28;3.53;;;;;;;10.35;100.00;99347.78;5053998;28;20619;-74
2021/05/26 01:03:33;;;;;;;3.75;2.70;;;;;;;10.53;100.00;99345.78;5053473;28;20209;-74
2021/05/26 01:05:59;;;;;;;4.78;3.35;;;;;;;10.70;100.00;99342.91;5053476;28;20187;-74
2021/05/26 01:08:25;;;;;;;3.08;2.72;;;;;;;10.48;100.00;99340.69;5053616;28;20542;-75
2021/05/26 01:10:51;;;;;;;4.68;3.20;;;;;;;10.35;100.00;99339.69;5053788;28;20322;-75
2021/05/26 01:13:19;;;;;;;4.70;3.13;;;;;;;10.29;100.00;99337.38;5052990;28;20212;-75
2021/05/26 01:15:45;;;;;;;5.10;3.10;;;;;;;10.49;100.00;99342.44;5053510;28;20538;-74
2021/05/26 01:18:20;;;;;;;6.65;3.50;;;;;;;10.50;100.00;99338.75;5053238;28;20639;-75
2021/05/26 01:20:47;;;;;;;3.22;3.03;;;;;;;10.68;100.00;99343.97;5053317;28;20193;-75
2021/05/26 01:23:16;;;;;;;4.28;3.40;;;;;;;10.69;100.00;99345.69;5054247;28;20207;-75
2021/05/26 01:25:43;;;;;;;4.32;3.65;;;;;;;10.79;100.00;99334.25;5057367;28;20299;-74
2021/05/26 01:28:10;;;;;;;10.43;4.30;;;;;;;10.94;100.00;99324.31;5057953;28;20190;-74
2021/05/26 01:30:36;;;;;;;11.70;6.88;;;;;;;10.96;98.77;99322.38;5057368;28;20232;-75
2021/05/26 01:33:03;;;;;;;5.85;4.28;;;;;;;10.95;99.15;99314.41;5057360;28;20219;-73
2021/05/26 01:35:29;;;;;;;8.40;5.80;;;;;;;10.97;97.96;99307.97;5057190;28;20190;-74
2021/05/26 01:37:55;;;;;;;3.88;3.30;;;;;;;10.96;94.07;99298.13;5057583;28;20284;-75
2021/05/26 01:40:22;;;;;;;5.65;3.50;;;;;;;10.88;97.01;99299.59;5057023;28;20601;-76
2021/05/26 01:42:48;;;;;;;5.30;4.05;;;;;;;10.93;95.53;99300.19;5057956;28;20274;-74
2021/05/26 01:45:17;;;;;;;4.18;3.75;;;;;;;10.83;97.08;99290.00;5057376;28;20550;-74
2021/05/26 01:47:44;;;;;;;9.90;3.55;;;;;;;10.79;99.44;99287.59;5057338;28;20203;-75
2021/05/26 01:50:20;;;;;;;3.85;3.13;;;;;;;10.94;96.77;99278.50;5057251;28;20199;-75
2021/05/26 01:52:47;;;;;;;4.30;3.50;;;;;;;10.94;96.79;99274.97;5057695;28;20707;-73
2021/05/26 01:55:14;;;;;;;6.28;3.60;;;;;;;10.65;99.43;99275.03;5057159;28;20275;-73
2021/05/26 01:57:43;;;;;;;5.45;3.20;;;;;;;10.68;98.35;99269.44;5057937;28;20204;-77
2021/05/26 02:00:10;;;;;;;6.40;2.92;;;;;;;10.97;96.75;99282.88;5056906;28;20186;-74
2021/05/26 02:02:36;;;;;;;6.28;4.07;;;;;;;11.06;96.35;99264.25;5057025;28;20535;-75
2021/05/26 02:05:03;;;;;;;10.23;3.28;;;;;;;11.16;93.78;99258.25;5056976;28;20228;-74
2021/05/26 02:07:29;;;;;;;7.00;3.70;;;;;;;11.20;92.72;99281.34;5056989;28;20251;-75
2021/05/26 02:09:55;;;;;;;5.75;2.78;;;;;;;11.29;92.91;99269.97;5057015;28;20303;-75
2021/05/26 02:12:21;;;;;;;5.93;2.90;;;;;;;11.40;92.86;99270.13;5056491;28;20201;-73
2021/05/26 02:14:50;;;;;;;3.47;3.00;;;;;;;11.42;93.00;99270.88;5057143;28;20657;-75
2021/05/26 02:17:17;;;;;;;4.25;3.00;;;;;;;11.39;93.49;99275.59;5056946;28;20201;-73
2021/05/26 02:19:43;;;;;;;5.00;3.75;;;;;;;11.43;93.71;99272.59;5056099;28;20186;-74
2021/05/26 02:22:10;;;;;;;8.50;4.63;;;;;;;11.42;94.06;99268.19;5056940;28;20291;-74
2021/05/26 02:24:36;;;;;;;3.63;3.00;;;;;;;11.59;93.90;99268.88;5056679;28;20580;-75
2021/05/26 02:27:02;;;;;;;5.60;4.15;;;;;;;11.54;94.04;99263.78;5056364;28;20338;-74
2021/05/26 02:29:28;;;;;;;5.45;3.67;;;;;;;11.45;94.68;99273.38;5056267;28;20193;-74
2021/05/26 02:31:55;;;;;;;4.75;3.75;;;;;;;11.54;95.71;99265.63;5056586;28;20234;-75
2021/05/26 02:34:21;;;;;;;9.52;3.30;;;;;;;11.52;96.40;99276.50;5056414;28;20216;-74
2021/05/26 02:36:47;;;;;;;3.85;3.33;;;;;;;11.53;95.72;99262.06;5056278;28;20299;-75
2021/05/26 02:39:13;;;;;;;6.53;3.10;;;;;;;11.56;95.86;99271.78;5056062;28;20327;-74
2021/05/26 02:41:40;;;;;;;7.97;3.90;;;;;;;11.63;92.94;99263.16;5056062;28;20231;-75
2021/05/26 02:44:07;;;;;;;10.32;3.30;;;;;;;11.68;91.87;99255.63;5055991;28;20209;-74
2021/05/26 02:46:34;;;;;;;8.20;3.42;;;;;;;11.59;92.97;99245.47;5056193;28;20274;-75
2021/05/26 02:49:02;;;;;;;3.90;2.88;;;;;;;11.64;91.81;99250.53;5055652;28;20189;-74
2021/05/26 02:51:28;;;;;;;5.03;2.72;;;;;;;11.74;90.28;99245.41;5055763;28;20211;-74
2021/05/26 02:53:54;;;;;;;7.63;3.72;;;;;;;11.59;89.83;99239.22;5055528;28;20407;-76
2021/05/26 02:56:20;;;;;;;6.40;3.42;;;;;;;11.62;90.44;99230.91;5056194;28;20236;-76
2021/05/26 02:58:46;;;;;;;5.38;3.28;;;;;;;11.62;90.51;99226.41;5056065;28;20206;-74
2021/05/26 03:01:13;;;;;;;6.28;3.88;;;;;;;11.58;89.47;99229.41;5056389;28;20612;-75
2021/05/26 03:03:39;;;;;;;10.80;3.80;;;;;;;11.62;90.77;99226.41;5055804;28;20185;-75
2021/05/26 03:06:06;;;;;;;4.28;3.30;;;;;;;11.58;91.14;99221.31;5056748;28;20195;-75
2021/05/26 03:08:32;;;;;;;7.07;3.17;;;;;;;11.56;90.70;99216.03;5056575;28;20304;-74
2021/05/26 03:10:59;;;;;;;4.05;2.63;;;;;;;11.74;90.04;99215.75;5055473;28;20189;-74
2021/05/26 03:13:26;;;;;;;4.90;2.88;;;;;;;11.62;90.88;99212.91;5055706;28;20292;-74
2021/05/26 03:15:53;;;;;;;5.35;2.85;;;;;;;11.59;90.69;99207.72;5055770;28;20535;-75
2021/05/26 03:18:19;;;;;;;5.03;3.25;;;;;;;11.56;90.78;99205.25;5054782;28;20284;-74
2021/05/26 03:20:46;;;;;;;4.30;2.80;;;;;;;11.50;88.90;99192.16;5055764;28;20619;-75
2021/05/26 03:23:13;;;;;;;4.05;2.35;;;;;;;11.55;89.81;99189.16;5056050;28;20201;-75
2021/05/26 03:25:39;;;;;;;6.43;2.95;;;;;;;11.59;87.89;99196.94;5054918;28;20205;-74
2021/05/26 03:28:06;;;;;;;4.70;2.95;;;;;;;11.57;88.00;99196.16;5055662;28;20186;-73
2021/05/26 03:30:34;;;;;;;4.40;2.70;;;;;;;11.56;88.61;99199.00;5055245;28;20271;-74
2021/05/26 03:33:01;;;;;;;4.70;2.60;;;;;;;11.53;88.59;99191.94;5055465;28;20249;-74
2021/05/26 03:35:27;;;;;;;7.15;2.72;;;;;;;11.47;88.58;99187.84;5055213;28;20315;-74
2021/05/26 03:37:53;;;;;;;3.95;2.83;;;;;;;11.46;87.48;99183.44;5055420;28;20296;-73
2021/05/26 03:40:20;;;;;;;3.58;2.53;;;;;;;11.47;88.18;99192.38;5054847;28;20595;-74
2021/05/26 03:42:47;;;;;;;6.38;2.60;;;;;;;11.43;88.92;99180.94;5054957;28;20189;-74
2021/05/26 03:45:14;;;;;;;4.93;2.75;;;;;;;11.33;90.40;99177.16;5054962;28;20182;-74
2021/05/26 03:47:40;;;;;;;7.93;2.95;;;;;;;11.34;90.70;99181.56;5054082;28;20194;-74
2021/05/26 03:50:12;;;;;;;3.80;2.65;;;;;;;11.33;91.11;99184.34;5055122;28;20208;-75
2021/05/26 03:52:39;;;;;;;5.15;2.80;;;;;;;11.47;89.92;99179.75;5055319;28;20193;-75
2021/05/26 03:55:07;;;;;;;5.05;3.05;;;;;;;11.50;90.02;99176.00;5054788;28;20283;-75
2021/05/26 03:57:34;;;;;;;4.50;3.03;;;;;;;11.40;90.07;99173.06;5054902;28;20201;-75
2021/05/26 04:00:00;;;;;;;8.18;3.70;;;;;;;11.35;91.13;99172.53;5054759;28;20192;-75
2021/05/26 04:02:26;;;;;;;6.88;2.92;;;;;;;11.36;90.92;99160.75;5054459;28;20199;-75
2021/05/26 04:04:53;;;;;;;4.57;2.63;;;;;;;11.39;91.53;99167.78;5054622;28;20200;-76
2021/05/26 04:07:19;;;;;;;4.82;2.50;;;;;;;11.40;90.71;99167.69;5054663;28;20549;-75
2021/05/26 04:09:45;;;;;;;6.65;2.70;;;;;;;11.41;90.84;99155.91;5054695;28;20184;-76
2021/05/26 04:12:12;;;;;;;9.85;2.67;;;;;;;11.42;91.15;99160.34;5054736;28;20205;-76
2021/05/26 04:14:39;;;;;;;4.10;2.55;;;;;;;11.34;91.70;99153.75;5054831;28;20208;-75
2021/05/26 04:17:05;;;;;;;7.97;3.00;;;;;;;11.43;91.16;99161.22;5053763;28;20193;-75
2021/05/26 04:19:31;;;;;;;5.93;3.10;;;;;;;11.45;91.64;99153.88;5054178;28;20200;-75
2021/05/26 04:21:57;;;;;;;5.75;2.92;;;;;;;11.44;92.10;99158.44;5054599;28;20247;-75
2021/05/26 04:24:23;;;;;;;6.25;2.65;;;;;;;11.51;91.54;99145.38;5054306;28;20236;-76
2021/05/26 04:26:49;;;;;;;12.23;7.25;;;;;;;11.50;91.31;99150.88;5053637;28;20284;-75
2021/05/26 04:29:18;;;;;;;3.33;2.85;;;;;;;11.39;92.97;99151.59;5054054;28;20189;-75
2021/05/26 04:31:45;;;;;;;6.78;3.50;;;;;;;11.52;92.72;99154.31;5053940;28;20200;-75
2021/05/26 04:34:11;;;;;;;5.45;3.33;;;;;;;11.51;91.78;99153.47;5054186;28;20716;-74
2021/05/26 04:36:37;;;;;;;5.30;3.40;;;;;;;11.64;91.98;99148.94;5054132;28;20213;-76
2021/05/26 04:39:04;;;;;;;6.70;4.00;;;;;;;11.70;92.66;99153.03;5053797;28;20234;-76
2021/05/26 04:41:30;;;;;;;5.10;3.38;;;;;;;11.67;92.13;99145.19;5053346;28;20200;-76
2021/05/26 04:43:56;;;;;;;5.95;3.60;;;;;;;11.79;91.71;99138.91;5053998;28;20189;-74
2021/05/26 04:46:22;;;;;;;5.40;3.00;;;;;;;11.86;90.91;99134.81;5053332;28;20234;-75
2021/05/26 04:48:49;;;;;;;8.35;4.55;;;;;;;11.97;90.50;99144.03;5053746;28;20219;-74
2021/05/26 04:51:15;;;;;;;10.88;4.20;;;;;;;11.95;90.50;99138.72;5054008;28;20217;-75
2021/05/26 04:53:41;;;;;;;4.80;3.60;;;;;;;11.99;90.43;99139.38;5053677;28;20216;-74
2021/05/26 04:56:07;;;;;;;7.65;4.28;;;;;;;11.98;91.91;99140.34;5053972;28;20276;-75
2021/05/26 04:58:33;;;;;;;5.93;2.85;;;;;;;12.09;90.45;99135.88;5052925;28;20201;-74
2021/05/26 05:01:00;;;;;;;6.65;3.80;;;;;;;12.15;90.03;99131.06;5053649;28;20182;-73
2021/05/26 05:03:26;;;;;;;8.73;4.30;;;;;;;12.20;89.46;99137.81;5053170;28;20193;-75
2021/05/26 05:05:53;;;;;;;4.40;3.35;;;;;;;12.18;87.51;99137.06;5051187;28;20228;-75
2021/05/26 05:08:19;;;;;;;8.85;3.92;;;;;;;12.09;88.26;99140.44;5053478;28;20643;-74
2021/05/26 05:10:45;;;;;;;5.97;3.80;;;;;;;12.10;89.25;99134.94;5053238;28;20239;-75
2021/05/26 05:13:12;;;;;;;10.15;3.17;;;;;;;11.96;89.29;99140.47;5051977;28;20627;-74
2021/05/26 05:15:38;;;;;;;5.18;3.45;;;;;;;11.89;88.68;99129.25;5053040;28;20292;-75
2021/05/26 05:18:04;;;;;;;4.07;2.65;;;;;;;11.65;87.63;99133.63;5053105;28;20208;-75
2021/05/26 05:20:30;;;;;;;3.72;2.72;;;;;;;11.62;88.84;99132.03;5053257;28;20197;-75
2021/05/26 05:22:57;;;;;;;6.93;2.47;;;;;;;11.76;88.84;99138.25;5053314;28;20643;-74
2021/05/26 05:25:23;;;;;;;3.97;2.90;;;;;;;11.84;87.94;99142.13;5054822;28;20661;-74
2021/05/26 05:27:50;;;;;;;6.32;3.55;;;;;;;11.81;88.62;99136.97;5051922;28;20195;-76
2021/05/26 05:30:17;;;;;;;5.22;2.40;;;;;;;11.74;87.72;99130.28;5052346;28;20272;-75
2021/05/26 05:32:43;;;;;;;6.15;2.70;;;;;;;11.71;87.55;99127.78;5053000;28;21908;-75
2021/05/26 05:35:11;;;;;;;5.10;2.83;;;;;;;11.73;87.46;99127.69;5052908;28;20216;-75
2021/05/26 05:37:37;;;;;;;6.55;2.92;;;;;;;11.51;87.63;99123.81;5053331;28;20623;-75
2021/05/26 05:40:05;;;;;;;5.60;2.53;;;;;;;11.74;88.15;99130.28;5052575;28;20307;-74
2021/05/26 05:42:31;;;;;;;6.63;2.50;;;;;;;11.81;86.61;99131.56;5053450;28;20264;-74
2021/05/26 05:44:57;;;;;;;7.80;2.92;;;;;;;11.76;87.75;99122.97;5053004;28;20186;-76
2021/05/26 05:47:24;;;;;;;6.78;3.35;;;;;;;11.91;89.08;99123.72;5052619;28;20288;-76
2021/05/26 05:49:50;;;;;;;4.75;2.78;;;;;;;11.97;85.97;99120.59;5053291;28;20264;-75
2021/05/26 05:52:16;;;;;;;4.30;2.30;;;;;;;11.94;87.02;99115.44;5053003;28;20189;-74
2021/05/26 05:54:42;;;;;;;3.80;2.03;;;;;;;11.98;85.86;99110.66;5052239;28;20312;-75
2021/05/26 05:57:09;;;;;;;6.72;3.05;;;;;;;11.95;86.08;99117.13;5052556;28;20201;-76
2021/05/26 05:59:35;;;;;;;5.38;2.60;;;;;;;11.92;87.09;99111.97;5052649;28;20233;-74
2021/05/26 06:02:02;;;;;;;5.38;3.30;;;;;;;12.12;87.74;99118.63;5052418;28;20200;-75
2021/05/26 06:04:28;;;;;;;5.38;2.60;;;;;;;12.11;86.21;99122.28;5052353;28;20269;-75
2021/05/26 06:06:54;;;;;;;4.90;2.60;;;;;;;12.14;85.27;99116.66;5052984;28;20280;-74
2021/05/26 06:09:21;;;;;;;4.65;2.30;;;;;;;12.19;86.40;99114.53;5053454;28;20288;-74
2021/05/26 06:11:47;;;;;;;7.65;3.30;;;;;;;12.12;87.36;99117.75;5056267;28;20276;-75
2021/05/26 06:14:15;;;;;;;5.80;3.00;;;;;;;11.85;87.40;99113.34;5055806;28;20300;-73
2021/05/26 06:16:41;;;;;;;4.60;2.40;;;;;;;11.73;87.62;99117.75;5056388;28;20643;-74
2021/05/26 06:19:07;;;;;;;4.53;2.75;;;;;;;11.82;88.26;99111.72;5056262;28;20185;-74
2021/05/26 06:21:34;;;;;;;8.45;3.38;;;;;;;11.89;88.43;99114.88;5053896;28;20200;-74
2021/05/26 06:24:01;;;;;;;4.30;2.80;;;;;;;11.93;87.85;99108.28;5055312;28;20288;-73
2021/05/26 06:26:31;;;;;;;3.53;2.30;;;;;;;12.13;87.51;99104.16;5056094;28;20264;-74
2021/05/26 06:28:57;;;;;;;6.05;3.35;;;;;;;12.06;87.75;99100.19;5054922;28;20269;-74
2021/05/26 06:31:24;;;;;;;3.78;2.65;;;;;;;12.18;87.83;99096.59;5054980;28;20554;-73
2021/05/26 06:33:50;;;;;;;6.30;2.78;;;;;;;12.25;86.14;99092.47;5055193;28;20241;-75
2021/05/26 06:36:16;;;;;;;10.25;2.83;;;;;;;12.12;86.91;99097.06;5055714;28;20274;-74
2021/05/26 06:38:42;;;;;;;4.15;3.20;;;;;;;12.00;87.69;99093.38;5055558;28;20288;-74
2021/05/26 06:41:09;;;;;;;3.80;2.78;;;;;;;11.85;87.17;99094.47;5055451;28;20217;-72
2021/05/26 06:43:36;;;;;;;6.30;2.78;;;;;;;11.76;87.90;99093.28;5056182;28;20650;-75
2021/05/26 06:46:02;;;;;;;6.65;2.80;;;;;;;11.94;88.30;99098.34;5055819;28;20288;-74
2021/05/26 06:48:29;;;;;;;7.50;3.40;;;;;;;11.81;88.54;99101.06;5055866;28;20239;-74
2021/05/26 06:50:56;;;;;;;6.43;4.00;;;;;;;11.88;88.53;99108.63;5055731;28;20272;-75
2021/05/26 06:53:22;;;;;;;7.07;3.42;;;;;;;11.96;89.09;99101.81;5055883;28;20284;-75
2021/05/26 06:55:48;;;;;;;4.00;2.80;;;;;;;12.09;88.66;99092.72;5055908;28;20663;-73
2021/05/26 06:58:14;;;;;;;6.10;3.55;;;;;;;11.97;87.69;99101.72;5054845;28;20201;-74
2021/05/26 07:00:40;;;;;;;4.90;3.45;;;;;;;11.95;88.20;99094.69;5054576;28;20277;-73
2021/05/26 07:03:06;;;;;;;9.48;3.88;;;;;;;12.01;87.44;99095.13;5055798;28;20288;-75
2021/05/26 07:05:33;;;;;;;5.88;3.70;;;;;;;11.84;86.63;99093.59;5054943;28;20193;-74
2021/05/26 07:08:00;;;;;;;8.13;5.45;;;;;;;11.95;87.46;99092.00;5055529;28;20205;-74
2021/05/26 07:10:26;;;;;;;8.32;5.32;;;;;;;12.04;87.21;99088.63;5054761;28;20189;-74
2021/05/26 07:12:52;;;;;;;8.00;4.30;;;;;;;12.20;86.40;99093.78;5055534;28;20765;-74
2021/05/26 07:15:19;;;;;;;4.20;3.42;;;;;;;12.19;85.54;99092.94;5054946;28;20244;-74
2021/05/26 07:17:46;;;;;;;7.25;3.63;;;;;;;12.01;87.02;99088.88;5054754;28;20680;-75
2021/05/26 07:20:14;;;;;;;11.23;4.15;;;;;;;12.29;87.08;99083.16;5055013;28;20190;-74
2021/05/26 07:22:41;;;;;;;5.05;3.30;;;;;;;12.27;85.75;99081.56;5054768;28;20237;-75
2021/05/26 07:25:08;;;;;;;6.70;4.10;;;;;;;12.45;84.63;99093.69;5055152;28;20280;-74
2021/05/26 07:27:35;;;;;;;11.90;6.07;;;;;;;12.57;84.75;99086.53;5054892;28;20296;-75
2021/05/26 07:30:01;;;;;;;8.02;4.70;;;;;;;12.76;83.34;99087.88;5055223;28;20221;-74
2021/05/26 07:32:27;;;;;;;5.10;3.70;;;;;;;12.47;83.12;99085.50;5055047;28;20367;-75
2021/05/26 07:34:53;;;;;;;5.90;3.90;;;;;;;12.29;84.42;99074.22;5054772;28;20205;-75
2021/05/26 07:37:19;;;;;;;7.45;3.75;;;;;;;12.17;84.58;99081.38;5055350;28;20213;-75
2021/05/26 07:39:46;;;;;;;9.73;4.65;;;;;;;12.37;86.02;99081.75;5054687;28;20287;-75
2021/05/26 07:42:14;;;;;;;6.00;3.75;;;;;;;12.42;85.00;99083.13;5054268;28;20273;-74
2021/05/26 07:44:41;;;;;;;6.10;4.05;;;;;;;12.49;85.86;99076.31;5050552;28;20654;-74
2021/05/26 07:47:07;;;;;;;6.53;4.75;;;;;;;12.36;86.34;99080.88;5054715;28;20189;-73
2021/05/26 07:49:33;;;;;;;7.15;3.97;;;;;;;12.54;87.24;99080.50;5054121;28;20545;-75
2021/05/26 07:52:03;;;;;;;8.23;4.75;;;;;;;12.63;87.72;99080.66;5053778;28;20287;-73
2021/05/26 07:54:30;;;;;;;5.65;3.80;;;;;;;12.61;87.08;99074.50;5054154;28;20241;-75
2021/05/26 07:56:58;;;;;;;4.85;3.20;;;;;;;12.63;86.20;99075.25;5054596;28;20292;-73
2021/05/26 07:59:25;;;;;;;6.20;3.60;;;;;;;12.80;85.83;99071.31;5054156;28;20654;-74
2021/05/26 08:01:51;;;;;;;5.35;3.90;;;;;;;12.71;86.30;99072.00;5053514;28;20251;-75
2021/05/26 08:04:17;;;;;;;6.25;4.07;;;;;;;12.54;87.02;99075.09;5053728;28;20208;-74
2021/05/26 08:06:43;;;;;;;4.82;3.38;;;;;;;12.67;87.17;99063.25;5053704;28;20265;-74
2021/05/26 08:09:09;;;;;;;9.73;5.47;;;;;;;12.94;87.29;99075.66;5053388;28;20337;-74
2021/05/26 08:11:35;;;;;;;5.90;3.80;;;;;;;12.88;85.14;99073.41;5053924;28;20288;-74
2021/05/26 08:14:03;;;;;;;3.38;2.70;;;;;;;12.77;85.71;99063.41;5053883;28;20240;-74
2021/05/26 08:16:29;;;;;;;4.85;3.97;;;;;;;12.77;86.15;99066.13;5053932;28;20189;-74
2021/05/26 08:18:55;;;;;;;3.72;3.17;;;;;;;12.90;85.58;99058.81;5053980;28;20272;-72
2021/05/26 08:21:22;;;;;;;4.43;3.47;;;;;;;12.89;85.76;99069.75;5054009;28;20205;-72
2021/05/26 08:23:48;;;;;;;4.85;3.40;;;;;;;13.04;87.29;99060.44;5053901;28;20218;-73
2021/05/26 08:26:17;;;;;;;4.88;2.53;;;;;;;12.93;86.55;99060.41;5054124;28;20626;-74
2021/05/26 08:28:44;;;;;;;4.13;3.45;;;;;;;12.72;86.70;99060.22;5053866;28;20188;-73
2021/05/26 08:31:11;;;;;;;5.90;2.78;;;;;;;13.02;87.82;99058.84;5053723;28;20185;-75
2021/05/26 08:33:40;;;;;;;8.75;3.25;;;;;;;12.90;86.37;99055.25;5053981;28;20278;-73
2021/05/26 08:36:06;;;;;;;2.47;2.25;;;;;;;12.79;87.36;99061.47;5053516;28;20189;-74
2021/05/26 08:38:32;;;;;;;4.63;2.63;;;;;;;12.51;87.99;99058.16;5053237;28;20207;-73
2021/05/26 08:41:03;;;;;;;3.25;2.25;;;;;;;12.56;88.69;99055.09;5053776;28;20182;-73
2021/05/26 08:43:30;;;;;;;2.58;2.35;;;;;;;12.84;88.77;99053.00;5053954;28;20643;-73
2021/05/26 08:45:57;;;;;;;4.35;2.58;;;;;;;12.75;87.19;99045.59;5053383;28;20201;-72
2021/05/26 08:48:29;;;;;;;2.80;2.38;;;;;;;12.72;87.72;99058.38;5053573;28;20233;-73
2021/05/26 08:50:56;;;;;;;2.63;2.15;;;;;;;12.80;87.68;99051.50;5053284;28;20184;-73
2021/05/26 08:53:23;;;;;;;3.47;2.60;;;;;;;12.97;87.65;99050.25;5053850;28;20186;-72
2021/05/26 08:55:49;;;;;;;2.15;1.90;;;;;;;12.83;87.42;99059.41;5053353;28;20197;-75
2021/05/26 08:58:16;;;;;;;4.65;2.55;;;;;;;12.77;91.45;99041.81;5053252;28;20190;-75
2021/05/26 09:00:42;;;;;;;2.67;2.20;;;;;;;12.54;92.51;99043.56;5053129;28;20228;-73
2021/05/26 09:03:08;;;;;;;3.00;2.70;;;;;;;12.67;93.41;99044.34;5052931;28;20255;-73
2021/05/26 09:05:36;;;;;;;2.75;2.55;;;;;;;12.68;91.64;99046.06;5052797;28;20204;-73
2021/05/26 09:08:17;;;;;;;2.40;2.20;;;;;;;12.77;90.99;99049.91;5053227;28;20201;-73
2021/05/26 09:10:48;;;;;;;2.42;2.00;;;;;;;12.86;90.13;99042.94;5051030;28;20706;-74
2021/05/26 09:13:32;;;;;;;3.63;2.30;;;;;;;12.96;89.82;99041.28;5052382;28;20247;-73
2021/05/26 09:15:59;;;;;;;2.78;2.55;;;;;;;13.04;89.68;99048.78;5052185;28;20225;-73
2021/05/26 09:18:25;;;;;;;4.10;2.30;;;;;;;13.43;89.44;99044.00;5052714;28;20635;-73
2021/05/26 09:20:52;;;;;;;3.35;2.55;;;;;;;13.49;87.78;99041.66;5052399;28;20627;-75
2021/05/26 09:23:28;;;;;;;2.35;1.70;;;;;;;13.48;86.04;99036.41;5052947;28;20258;-75
2021/05/26 09:25:56;;;;;;;2.25;1.92;;;;;;;13.05;89.27;99043.28;5052626;28;20208;-73
2021/05/26 09:28:25;;;;;;;3.13;2.22;;;;;;;13.11;89.69;99044.63;5052520;28;20209;-74
2021/05/26 09:30:54;;;;;;;2.53;2.33;;;;;;;13.39;90.47;99040.69;5052682;28;20186;-73
2021/05/26 09:33:29;;;;;;;3.40;1.80;;;;;;;12.73;90.58;99041.19;5052755;28;20411;-72
2021/05/26 09:36:19;;;;;;;2.58;1.98;;;;;;;12.73;93.54;99040.34;5053000;28;20189;-73
2021/05/26 09:38:48;;;;;;;3.70;2.25;;;;;;;12.67;93.15;99036.25;5052754;28;20237;-73
2021/05/26 09:41:16;;;;;;;2.35;1.90;;;;;;;12.62;93.41;99034.88;5053040;28;20639;-73
2021/05/26 09:43:45;;;;;;;4.47;3.78;;;;;;;12.57;94.16;99037.91;5053146;28;20201;-76
2021/05/26 09:46:29;;;;;;;1.92;1.45;;;;;;;12.65;91.95;99042.75;5056618;28;20300;-74
2021/05/26 09:49:07;;;;;;;2.13;1.80;;;;;;;12.71;90.73;99045.84;5056667;28;20629;-74
2021/05/26 09:51:35;;;;;;;4.20;3.00;;;;;;;12.77;91.99;99039.09;5055947;28;20247;-75
2021/05/26 09:54:13;;;;;;;1.98;1.50;;;;;;;12.63;91.52;99032.06;5056142;28;20688;-74
2021/05/26 09:56:40;;;;;;;2.10;1.85;;;;;;;13.03;93.07;99033.56;5056209;28;20299;-74
2021/05/26 09:59:08;;;;;;;2.00;1.63;;;;;;;13.13;89.20;99037.25;5056578;28;20608;-75
2021/05/26 10:01:36;;;;;;;2.92;1.70;;;;;;;13.24;88.61;99034.59;5055741;28;20193;-76
2021/05/26 10:04:03;;;;;;;5.93;1.60;;;;;;;13.51;87.37;99022.63;5056530;28;20259;-74
2021/05/26 10:06:31;;;;;;;3.38;1.70;;;;;;;13.84;85.82;99027.19;5055967;28;20225;-76
2021/05/26 10:08:59;;;;;;;1.95;1.52;;;;;;;14.01;85.16;99020.38;5056090;28;20209;-74
2021/05/26 10:11:27;;;;;;;2.00;1.42;;;;;;;14.07;83.91;99027.16;5055543;28;20291;-74
2021/05/26 10:13:54;;;;;;;1.60;1.40;;;;;;;14.23;83.38;99034.88;5056293;28;20205;-76
2021/05/26 10:16:22;;;;;;;2.08;1.23;;;;;;;14.02;82.47;99032.94;5055839;28;20292;-73
2021/05/26 10:18:50;;;;;;;1.23;1.13;;;;;;;13.99;83.39;99033.19;5055593;28;20197;-75
2021/05/26 10:21:20;;;;;;;2.40;1.90;;;;;;;14.49;82.85;99038.97;5055873;28;20250;-75
2021/05/26 10:23:46;;;;;;;1.70;1.38;;;;;;;14.87;80.32;99021.38;5055477;28;20195;-76
2021/05/26 10:26:14;;;;;;;2.10;1.70;;;;;;;14.97;80.38;99035.03;5055832;28;20196;-73
2021/05/26 10:28:40;;;;;;;3.35;1.10;;;;;;;14.94;79.87;99032.56;5055316;28;20208;-75
2021/05/26 10:31:07;;;;;;;4.15;1.30;;;;;;;14.62;81.77;99025.31;5055291;28;20210;-74
2021/05/26 10:33:53;;;;;;;1.70;1.38;;;;;;;14.76;81.47;99029.56;5055188;28;20191;-75
2021/05/26 10:36:21;;;;;;;1.88;1.20;;;;;;;14.62;82.56;99028.03;5054924;28;20205;-74
2021/05/26 10:39:00;;;;;;;4.18;2.88;;;;;;;15.06;81.59;99023.41;5054977;28;20234;-74
2021/05/26 10:41:51;;;;;;;1.10;0.95;;;;;;;15.07;79.70;99024.25;5055265;28;20191;-75
2021/05/26 10:44:18;;;;;;;1.40;1.00;;;;;;;14.76;81.50;99027.72;5054444;28;20181;-73
2021/05/26 10:46:48;;;;;;;1.90;1.40;;;;;;;14.56;84.59;99029.41;5054682;28;20186;-75
2021/05/26 10:49:15;;;;;;;2.00;1.10;;;;;;;14.52;82.72;99025.19;5055454;28;20222;-73
2021/05/26 10:52:06;;;;;;;1.65;1.23;;;;;;;15.04;81.29;99019.97;5055696;28;20633;-75
2021/05/26 10:55:00;;;;;;;2.85;2.58;;;;;;;15.81;78.35;99018.72;5055206;28;20212;-73
2021/05/26 10:57:29;;;;;;;1.73;1.23;;;;;;;15.57;76.32;99019.84;5054199;28;20217;-76
2021/05/26 11:00:30;;;;;;;2.47;1.10;;;;;;;15.31;79.65;99014.00;5055598;28;20250;-75
2021/05/26 11:03:39;;;;;;;1.45;1.30;;;;;;;14.99;80.83;99005.91;5054659;28;20286;-75
2021/05/26 11:06:36;;;;;;;2.45;1.23;;;;;;;15.57;77.51;99002.72;5054011;28;20202;-73
2021/05/26 11:09:06;;;;;;;1.75;0.80;;;;;;;16.41;74.65;99010.56;5055621;28;20200;-72
2021/05/26 11:11:52;;;;;;;1.58;1.02;;;;;;;16.48;72.28;99017.16;5050328;28;20524;-74
2021/05/26 11:14:33;;;;;;;1.42;1.00;;;;;;;16.53;72.28;99008.59;5034875;28;20224;-74
2021/05/26 11:17:21;;;;;;;1.52;1.42;;;;;;;16.34;72.33;99012.13;5054078;28;20267;-73
2021/05/26 11:19:48;;;;;;;3.80;1.65;;;;;;;15.93;75.32;99006.75;5074763;28;20271;-73
2021/05/26 11:22:15;;;;;;;1.80;1.20;;;;;;;15.72;74.89;99006.81;5074730;28;20252;-74
2021/05/26 11:24:43;;;;;;;2.20;0.80;;;;;;;15.13;76.39;99018.31;5062061;28;20188;-74
2021/05/26 11:27:14;;;;;;;3.28;1.08;;;;;;;15.15;77.11;99005.44;5054656;28;20224;-73
2021/05/26 11:29:42;;;;;;;1.20;1.10;;;;;;;15.18;76.43;99010.63;5054407;28;20208;-72
2021/05/26 11:32:09;;;;;;;1.20;1.00;;;;;;;15.30;76.13;98997.84;5054035;28;20266;-74
2021/05/26 11:34:36;;;;;;;2.00;1.23;;;;;;;15.76;74.49;99007.38;5054320;28;20220;-74